FDX1405 KMEM-KORD
Flight info
| Callsign | FDX1405 |
|---|---|
| Flight time | 1h 16m |
| Altitude | 30000 |
| Route | JTEEE5 ODATE FTZ TRTLL6 |
| Aircraft | MD11/H-SDE1E2E3FGHIJ2J3J4J5M1RWXY/LB1D1 |
Departure
| Time | 2026-05-05 02:59 |
|---|---|
| Airport | Memphis International Airport (KMEM) |
Arrival
| Time | 2026-05-05 04:15 |
|---|---|
| Airport | Chicago O'Hare International Airport (KORD) |
| Time | Latitude | Longitude | Altitude | Speed | Heading |
|---|---|---|---|---|---|
| 2026-05-05 02:22 | 35.06266 | -89.98602 | 338 ft | 0 kts | 271° |
| 2026-05-05 02:46 | 35.06265 | -89.98594 | 338 ft | 2 kts | 271° |
| 2026-05-05 02:46 | 35.06265 | -89.98574 | 333 ft | 3 kts | 263° |
| 2026-05-05 02:47 | 35.06268 | -89.98554 | 333 ft | 3 kts | 237° |
| 2026-05-05 02:47 | 35.06279 | -89.98538 | 333 ft | 3 kts | 210° |
| 2026-05-05 02:47 | 35.06296 | -89.98528 | 335 ft | 3 kts | 192° |
| 2026-05-05 02:47 | 35.06316 | -89.98524 | 333 ft | 3 kts | 183° |
| 2026-05-05 02:48 | 35.06327 | -89.98523 | 333 ft | 1 kts | 182° |
| 2026-05-05 02:48 | 35.06330 | -89.98523 | 333 ft | 0 kts | 182° |
| 2026-05-05 02:51 | 35.06328 | -89.98523 | 333 ft | 1 kts | 182° |
| 2026-05-05 02:51 | 35.06316 | -89.98523 | 333 ft | 3 kts | 182° |
| 2026-05-05 02:52 | 35.06286 | -89.98525 | 333 ft | 5 kts | 182° |
| 2026-05-05 02:52 | 35.06256 | -89.98526 | 333 ft | 3 kts | 182° |
| 2026-05-05 02:52 | 35.06237 | -89.98527 | 333 ft | 3 kts | 182° |
| 2026-05-05 02:52 | 35.06220 | -89.98527 | 335 ft | 2 kts | 182° |
| 2026-05-05 02:53 | 35.06207 | -89.98528 | 335 ft | 3 kts | 182° |
| 2026-05-05 02:53 | 35.06184 | -89.98529 | 336 ft | 4 kts | 182° |
| 2026-05-05 02:53 | 35.06157 | -89.98530 | 335 ft | 4 kts | 182° |
| 2026-05-05 02:53 | 35.06118 | -89.98532 | 335 ft | 6 kts | 182° |
| 2026-05-05 02:54 | 35.06067 | -89.98527 | 336 ft | 10 kts | 174° |
| 2026-05-05 02:54 | 35.05984 | -89.98516 | 335 ft | 14 kts | 174° |
| 2026-05-05 02:54 | 35.05872 | -89.98505 | 331 ft | 18 kts | 175° |
| 2026-05-05 02:54 | 35.05742 | -89.98508 | 335 ft | 18 kts | 181° |
| 2026-05-05 02:55 | 35.05627 | -89.98511 | 335 ft | 15 kts | 180° |
| 2026-05-05 02:55 | 35.05529 | -89.98510 | 335 ft | 13 kts | 180° |
| 2026-05-05 02:55 | 35.05444 | -89.98510 | 335 ft | 11 kts | 180° |
| 2026-05-05 02:55 | 35.05371 | -89.98510 | 335 ft | 10 kts | 180° |
| 2026-05-05 02:56 | 35.05311 | -89.98511 | 335 ft | 8 kts | 180° |
| 2026-05-05 02:56 | 35.05259 | -89.98511 | 334 ft | 7 kts | 180° |
| 2026-05-05 02:56 | 35.05212 | -89.98512 | 335 ft | 7 kts | 181° |
| 2026-05-05 02:56 | 35.05155 | -89.98513 | 335 ft | 11 kts | 183° |
| 2026-05-05 02:57 | 35.05063 | -89.98548 | 334 ft | 15 kts | 204° |
| 2026-05-05 02:57 | 35.04978 | -89.98597 | 334 ft | 9 kts | 207° |
| 2026-05-05 02:57 | 35.04947 | -89.98635 | 335 ft | 4 kts | 235° |
| 2026-05-05 02:57 | 35.04937 | -89.98663 | 336 ft | 3 kts | 257° |
| 2026-05-05 02:58 | 35.04936 | -89.98700 | 338 ft | 6 kts | 267° |
| 2026-05-05 02:58 | 35.04922 | -89.98737 | 337 ft | 2 kts | 219° |
| 2026-05-05 02:58 | 35.04898 | -89.98741 | 335 ft | 7 kts | 185° |
| 2026-05-05 02:58 | 35.04724 | -89.98741 | 336 ft | 62 kts | 179° |
| 2026-05-05 02:59 | 35.03982 | -89.98728 | 335 ft | 147 kts | 178° |
| 2026-05-05 02:59 | 35.02834 | -89.98695 | 861 ft | 171 kts | 180° |
| 2026-05-05 02:59 | 35.01697 | -89.98627 | 2233 ft | 147 kts | 181° |
| 2026-05-05 02:59 | 35.00662 | -89.98595 | 3363 ft | 153 kts | 191° |
| 2026-05-05 03:00 | 34.99557 | -89.98957 | 3957 ft | 184 kts | 200° |
| 2026-05-05 03:00 | 34.98201 | -89.99535 | 4116 ft | 227 kts | 201° |
| 2026-05-05 03:00 | 34.96665 | -90.00260 | 4590 ft | 241 kts | 207° |
| 2026-05-05 03:00 | 34.95301 | -90.01427 | 5298 ft | 247 kts | 227° |
| 2026-05-05 03:01 | 34.94405 | -90.03250 | 6258 ft | 253 kts | 253° |
| 2026-05-05 03:01 | 34.94146 | -90.05358 | 7237 ft | 258 kts | 267° |
| 2026-05-05 03:01 | 34.94111 | -90.07562 | 8278 ft | 262 kts | 270° |
| 2026-05-05 03:01 | 34.94163 | -90.09802 | 9277 ft | 267 kts | 278° |
| 2026-05-05 03:02 | 34.94696 | -90.11981 | 10199 ft | 274 kts | 291° |
| 2026-05-05 03:02 | 34.95518 | -90.14240 | 10394 ft | 309 kts | 295° |
| 2026-05-05 03:02 | 34.96682 | -90.16612 | 10566 ft | 342 kts | 307° |
| 2026-05-05 03:02 | 34.98414 | -90.18639 | 11438 ft | 350 kts | 323° |
| 2026-05-05 03:03 | 35.00620 | -90.19957 | 12428 ft | 358 kts | 341° |
| 2026-05-05 03:03 | 35.03105 | -90.20475 | 13350 ft | 366 kts | 352° |
| 2026-05-05 03:03 | 35.05632 | -90.20619 | 14206 ft | 371 kts | 355° |
| 2026-05-05 03:03 | 35.08230 | -90.20595 | 14953 ft | 377 kts | 2° |
| 2026-05-05 03:04 | 35.10848 | -90.20076 | 15748 ft | 384 kts | 9° |
| 2026-05-05 03:04 | 35.13459 | -90.19285 | 16510 ft | 389 kts | 11° |
| 2026-05-05 03:04 | 35.16084 | -90.18405 | 17260 ft | 394 kts | 12° |
| 2026-05-05 03:04 | 35.18739 | -90.17510 | 17993 ft | 398 kts | 11° |
| 2026-05-05 03:05 | 35.21422 | -90.16623 | 18635 ft | 402 kts | 11° |
| 2026-05-05 03:05 | 35.24145 | -90.15744 | 19246 ft | 406 kts | 10° |
| 2026-05-05 03:05 | 35.26891 | -90.14871 | 19834 ft | 410 kts | 10° |
| 2026-05-05 03:05 | 35.29663 | -90.13999 | 20418 ft | 413 kts | 10° |
| 2026-05-05 03:06 | 35.32460 | -90.13124 | 21007 ft | 417 kts | 9° |
| 2026-05-05 03:06 | 35.35287 | -90.12241 | 21595 ft | 421 kts | 9° |
| 2026-05-05 03:06 | 35.38140 | -90.11349 | 22202 ft | 425 kts | 9° |
| 2026-05-05 03:06 | 35.41021 | -90.10448 | 22818 ft | 429 kts | 9° |
| 2026-05-05 03:07 | 35.43931 | -90.09538 | 23441 ft | 434 kts | 9° |
| 2026-05-05 03:07 | 35.46869 | -90.08617 | 24005 ft | 437 kts | 9° |
| 2026-05-05 03:07 | 35.49830 | -90.07688 | 24615 ft | 439 kts | 8° |
| 2026-05-05 03:07 | 35.52800 | -90.06755 | 25243 ft | 442 kts | 8° |
| 2026-05-05 03:08 | 35.55785 | -90.05817 | 25870 ft | 444 kts | 8° |
| 2026-05-05 03:08 | 35.58788 | -90.04873 | 26474 ft | 447 kts | 7° |
| 2026-05-05 03:08 | 35.61812 | -90.03974 | 27048 ft | 446 kts | 3° |
| 2026-05-05 03:08 | 35.64877 | -90.03622 | 27648 ft | 439 kts | 354° |
| 2026-05-05 03:09 | 35.67916 | -90.03731 | 28232 ft | 437 kts | 349° |
| 2026-05-05 03:09 | 35.70956 | -90.04031 | 28750 ft | 440 kts | 348° |
| 2026-05-05 03:09 | 35.74010 | -90.04383 | 29167 ft | 440 kts | 348° |
| 2026-05-05 03:09 | 35.77025 | -90.04726 | 29588 ft | 442 kts | 347° |
| 2026-05-05 03:10 | 35.80075 | -90.05176 | 29912 ft | 441 kts | 344° |
| 2026-05-05 03:10 | 35.86012 | -90.06794 | 29963 ft | 434 kts | 339° |
| 2026-05-05 03:11 | 35.91838 | -90.08719 | 29972 ft | 433 kts | 339° |
| 2026-05-05 03:11 | 35.97674 | -90.10618 | 29963 ft | 434 kts | 339° |
| 2026-05-05 03:12 | 36.03530 | -90.12476 | 29955 ft | 435 kts | 339° |
| 2026-05-05 03:12 | 36.09369 | -90.14315 | 29958 ft | 436 kts | 340° |
| 2026-05-05 03:13 | 36.15251 | -90.16168 | 29957 ft | 436 kts | 340° |
| 2026-05-05 03:13 | 36.21143 | -90.18028 | 29956 ft | 437 kts | 340° |
| 2026-05-05 03:14 | 36.27049 | -90.19890 | 29962 ft | 438 kts | 340° |
| 2026-05-05 03:14 | 36.32972 | -90.21727 | 29948 ft | 439 kts | 340° |
| 2026-05-05 03:15 | 36.38910 | -90.23560 | 29940 ft | 440 kts | 340° |
| 2026-05-05 03:15 | 36.44861 | -90.25399 | 29940 ft | 441 kts | 340° |
| 2026-05-05 03:16 | 36.50822 | -90.27246 | 29924 ft | 441 kts | 340° |
| 2026-05-05 03:16 | 36.56786 | -90.29120 | 29919 ft | 442 kts | 340° |
| 2026-05-05 03:17 | 36.62755 | -90.30996 | 29936 ft | 443 kts | 340° |
| 2026-05-05 03:17 | 36.68708 | -90.32861 | 29934 ft | 444 kts | 340° |
| 2026-05-05 03:18 | 36.74697 | -90.34736 | 29923 ft | 445 kts | 340° |
| 2026-05-05 03:18 | 36.80709 | -90.36622 | 29934 ft | 445 kts | 340° |
| 2026-05-05 03:19 | 36.89733 | -90.39457 | 29926 ft | 446 kts | 341° |
| 2026-05-05 03:19 | 36.95756 | -90.41354 | 29922 ft | 446 kts | 341° |
| 2026-05-05 03:20 | 37.01793 | -90.43257 | 29909 ft | 447 kts | 341° |
| 2026-05-05 03:20 | 37.07785 | -90.45153 | 29903 ft | 447 kts | 341° |
| 2026-05-05 03:21 | 37.13819 | -90.47072 | 29896 ft | 448 kts | 341° |
| 2026-05-05 03:21 | 37.19866 | -90.48993 | 29899 ft | 448 kts | 341° |
| 2026-05-05 03:22 | 37.24937 | -90.50603 | 29897 ft | 448 kts | 341° |
| 2026-05-05 03:22 | 37.30940 | -90.52512 | 29896 ft | 448 kts | 341° |
| 2026-05-05 03:23 | 37.36986 | -90.54437 | 29895 ft | 448 kts | 341° |
| 2026-05-05 03:23 | 37.43030 | -90.56365 | 29895 ft | 448 kts | 341° |
| 2026-05-05 03:24 | 37.49065 | -90.58293 | 29898 ft | 447 kts | 341° |
| 2026-05-05 03:24 | 37.55069 | -90.60214 | 29896 ft | 447 kts | 341° |
| 2026-05-05 03:25 | 37.61094 | -90.62145 | 29896 ft | 446 kts | 341° |
| 2026-05-05 03:25 | 37.67121 | -90.64081 | 29894 ft | 447 kts | 341° |
| 2026-05-05 03:26 | 37.73146 | -90.66019 | 29898 ft | 447 kts | 341° |
| 2026-05-05 03:26 | 37.79176 | -90.67963 | 29892 ft | 447 kts | 341° |
| 2026-05-05 03:27 | 37.85176 | -90.69899 | 29888 ft | 448 kts | 341° |
| 2026-05-05 03:27 | 37.91218 | -90.71859 | 29872 ft | 448 kts | 341° |
| 2026-05-05 03:28 | 37.97264 | -90.73825 | 29859 ft | 449 kts | 341° |
| 2026-05-05 03:28 | 38.03324 | -90.75794 | 29847 ft | 449 kts | 341° |
| 2026-05-05 03:29 | 38.09393 | -90.77766 | 29844 ft | 450 kts | 341° |
| 2026-05-05 03:29 | 38.15425 | -90.79729 | 29847 ft | 451 kts | 341° |
| 2026-05-05 03:30 | 38.21515 | -90.81714 | 29850 ft | 452 kts | 341° |
| 2026-05-05 03:30 | 38.27607 | -90.83704 | 29852 ft | 452 kts | 341° |
| 2026-05-05 03:31 | 38.33708 | -90.85701 | 29845 ft | 453 kts | 341° |
| 2026-05-05 03:31 | 38.39825 | -90.87706 | 29828 ft | 454 kts | 341° |
| 2026-05-05 03:32 | 38.45942 | -90.89715 | 29835 ft | 454 kts | 341° |
| 2026-05-05 03:32 | 38.52072 | -90.91731 | 29834 ft | 455 kts | 341° |
| 2026-05-05 03:33 | 38.58211 | -90.93754 | 29843 ft | 456 kts | 340° |
| 2026-05-05 03:33 | 38.64361 | -90.95759 | 29839 ft | 457 kts | 342° |
| 2026-05-05 03:34 | 38.70765 | -90.96347 | 29831 ft | 472 kts | 2° |
| 2026-05-05 03:34 | 38.73993 | -90.95400 | 29828 ft | 481 kts | 13° |
| 2026-05-05 03:34 | 38.77124 | -90.93814 | 29824 ft | 486 kts | 19° |
| 2026-05-05 03:35 | 38.83214 | -90.90116 | 29804 ft | 488 kts | 20° |
| 2026-05-05 03:35 | 38.89391 | -90.86486 | 29789 ft | 487 kts | 18° |
| 2026-05-05 03:36 | 38.95605 | -90.83041 | 29781 ft | 486 kts | 17° |
| 2026-05-05 03:36 | 39.01845 | -90.79644 | 29779 ft | 487 kts | 17° |
| 2026-05-05 03:37 | 39.08080 | -90.76243 | 29779 ft | 487 kts | 17° |
| 2026-05-05 03:37 | 39.14321 | -90.72824 | 29772 ft | 488 kts | 17° |
| 2026-05-05 03:38 | 39.20574 | -90.69389 | 29760 ft | 488 kts | 17° |
| 2026-05-05 03:38 | 39.26826 | -90.65947 | 29754 ft | 489 kts | 17° |
| 2026-05-05 03:39 | 39.33091 | -90.62492 | 29750 ft | 490 kts | 17° |
| 2026-05-05 03:39 | 39.39320 | -90.59050 | 29760 ft | 490 kts | 17° |
| 2026-05-05 03:40 | 39.45591 | -90.55513 | 29762 ft | 492 kts | 18° |
| 2026-05-05 03:40 | 39.51823 | -90.51857 | 29769 ft | 492 kts | 18° |
| 2026-05-05 03:41 | 39.58045 | -90.48189 | 29761 ft | 491 kts | 18° |
| 2026-05-05 03:41 | 39.64265 | -90.44528 | 29751 ft | 490 kts | 18° |
| 2026-05-05 03:42 | 39.70477 | -90.40874 | 29761 ft | 489 kts | 18° |
| 2026-05-05 03:42 | 39.76631 | -90.37247 | 29765 ft | 488 kts | 18° |
| 2026-05-05 03:43 | 39.82824 | -90.33589 | 29765 ft | 488 kts | 18° |
| 2026-05-05 03:43 | 39.89012 | -90.29926 | 29755 ft | 488 kts | 18° |
| 2026-05-05 03:44 | 39.95174 | -90.26231 | 29743 ft | 489 kts | 22° |
| 2026-05-05 03:44 | 40.00807 | -90.21081 | 29742 ft | 500 kts | 35° |
| 2026-05-05 03:45 | 40.05973 | -90.15053 | 29739 ft | 501 kts | 37° |
| 2026-05-05 03:45 | 40.11163 | -90.08962 | 29735 ft | 500 kts | 37° |
| 2026-05-05 03:46 | 40.16399 | -90.02978 | 29734 ft | 499 kts | 36° |
| 2026-05-05 03:46 | 40.21647 | -89.97037 | 29735 ft | 498 kts | 36° |
| 2026-05-05 03:47 | 40.26889 | -89.91095 | 29732 ft | 498 kts | 36° |
| 2026-05-05 03:47 | 40.32128 | -89.85138 | 29725 ft | 499 kts | 37° |
| 2026-05-05 03:48 | 40.37359 | -89.79167 | 29739 ft | 499 kts | 37° |
| 2026-05-05 03:48 | 40.42595 | -89.73187 | 29752 ft | 498 kts | 37° |
| 2026-05-05 03:49 | 40.47825 | -89.67217 | 29762 ft | 498 kts | 37° |
| 2026-05-05 03:49 | 40.53028 | -89.61270 | 29764 ft | 499 kts | 37° |
| 2026-05-05 03:50 | 40.58255 | -89.55283 | 29577 ft | 497 kts | 37° |
| 2026-05-05 03:50 | 40.60853 | -89.52300 | 29164 ft | 496 kts | 37° |
| 2026-05-05 03:50 | 40.63453 | -89.49313 | 28562 ft | 496 kts | 37° |
| 2026-05-05 03:51 | 40.66060 | -89.46316 | 27863 ft | 496 kts | 37° |
| 2026-05-05 03:51 | 40.68646 | -89.43337 | 27240 ft | 491 kts | 37° |
| 2026-05-05 03:51 | 40.71210 | -89.40381 | 26862 ft | 488 kts | 37° |
| 2026-05-05 03:51 | 40.73759 | -89.37422 | 26700 ft | 486 kts | 38° |
| 2026-05-05 03:52 | 40.76280 | -89.34445 | 26663 ft | 487 kts | 38° |
| 2026-05-05 03:52 | 40.78791 | -89.31453 | 26564 ft | 486 kts | 38° |
| 2026-05-05 03:52 | 40.81300 | -89.28454 | 26143 ft | 488 kts | 38° |
| 2026-05-05 03:52 | 40.83800 | -89.25463 | 25391 ft | 481 kts | 38° |
| 2026-05-05 03:53 | 40.86274 | -89.22501 | 24683 ft | 477 kts | 38° |
| 2026-05-05 03:53 | 40.88723 | -89.19571 | 23987 ft | 473 kts | 38° |
| 2026-05-05 03:53 | 40.91150 | -89.16668 | 23462 ft | 469 kts | 38° |
| 2026-05-05 03:53 | 40.93532 | -89.13818 | 22813 ft | 466 kts | 38° |
| 2026-05-05 03:54 | 40.95930 | -89.10946 | 22109 ft | 462 kts | 38° |
| 2026-05-05 03:54 | 40.98303 | -89.08099 | 21454 ft | 457 kts | 38° |
| 2026-05-05 03:54 | 41.00649 | -89.05284 | 20802 ft | 453 kts | 38° |
| 2026-05-05 03:54 | 41.02972 | -89.02492 | 20164 ft | 449 kts | 38° |
| 2026-05-05 03:55 | 41.05274 | -88.99724 | 19516 ft | 445 kts | 38° |
| 2026-05-05 03:55 | 41.07556 | -88.96977 | 18893 ft | 441 kts | 38° |
| 2026-05-05 03:55 | 41.09821 | -88.94247 | 18256 ft | 437 kts | 38° |
| 2026-05-05 03:55 | 41.12057 | -88.91551 | 17588 ft | 433 kts | 38° |
| 2026-05-05 03:56 | 41.14275 | -88.88872 | 16922 ft | 429 kts | 38° |
| 2026-05-05 03:56 | 41.16470 | -88.86220 | 16298 ft | 425 kts | 38° |
| 2026-05-05 03:56 | 41.18643 | -88.83592 | 15674 ft | 420 kts | 38° |
| 2026-05-05 03:56 | 41.20792 | -88.80985 | 15211 ft | 416 kts | 38° |
| 2026-05-05 03:57 | 41.22927 | -88.78386 | 14632 ft | 416 kts | 38° |
| 2026-05-05 03:57 | 41.25051 | -88.75797 | 13950 ft | 411 kts | 38° |
| 2026-05-05 03:57 | 41.27118 | -88.73277 | 13310 ft | 406 kts | 38° |
| 2026-05-05 03:57 | 41.29196 | -88.70747 | 12650 ft | 402 kts | 38° |
| 2026-05-05 03:58 | 41.31240 | -88.68259 | 12178 ft | 398 kts | 38° |
| 2026-05-05 03:58 | 41.33283 | -88.65774 | 11803 ft | 396 kts | 38° |
| 2026-05-05 03:58 | 41.35308 | -88.63310 | 11419 ft | 393 kts | 38° |
| 2026-05-05 03:58 | 41.37331 | -88.60861 | 11117 ft | 391 kts | 38° |
| 2026-05-05 03:59 | 41.39349 | -88.58448 | 11054 ft | 390 kts | 37° |
| 2026-05-05 03:59 | 41.41371 | -88.56047 | 11011 ft | 389 kts | 37° |
| 2026-05-05 03:59 | 41.43394 | -88.53648 | 10988 ft | 389 kts | 37° |
| 2026-05-05 03:59 | 41.45422 | -88.51243 | 10996 ft | 389 kts | 37° |
| 2026-05-05 04:00 | 41.47447 | -88.48839 | 10999 ft | 390 kts | 37° |
| 2026-05-05 04:00 | 41.49470 | -88.46434 | 11007 ft | 389 kts | 37° |
| 2026-05-05 04:00 | 41.51492 | -88.44028 | 11008 ft | 389 kts | 37° |
| 2026-05-05 04:00 | 41.53490 | -88.41648 | 11016 ft | 390 kts | 37° |
| 2026-05-05 04:01 | 41.55519 | -88.39228 | 11019 ft | 391 kts | 37° |
| 2026-05-05 04:01 | 41.57543 | -88.36813 | 11023 ft | 391 kts | 37° |
| 2026-05-05 04:01 | 41.59574 | -88.34386 | 11032 ft | 391 kts | 37° |
| 2026-05-05 04:01 | 41.61600 | -88.31963 | 11036 ft | 391 kts | 37° |
| 2026-05-05 04:02 | 41.63626 | -88.29538 | 11035 ft | 391 kts | 37° |
| 2026-05-05 04:02 | 41.65655 | -88.27111 | 11041 ft | 391 kts | 37° |
| 2026-05-05 04:02 | 41.67681 | -88.24688 | 11045 ft | 390 kts | 37° |
| 2026-05-05 04:02 | 41.69709 | -88.22263 | 11047 ft | 390 kts | 37° |
| 2026-05-05 04:03 | 41.71733 | -88.19841 | 11047 ft | 390 kts | 37° |
| 2026-05-05 04:03 | 41.73759 | -88.17417 | 11049 ft | 390 kts | 37° |
| 2026-05-05 04:03 | 41.75773 | -88.15004 | 10848 ft | 385 kts | 37° |
| 2026-05-05 04:03 | 41.77778 | -88.12599 | 9998 ft | 385 kts | 37° |
| 2026-05-05 04:04 | 41.79733 | -88.10247 | 9801 ft | 366 kts | 37° |
| 2026-05-05 04:04 | 41.81541 | -88.08019 | 9667 ft | 348 kts | 39° |
| 2026-05-05 04:04 | 41.83237 | -88.05804 | 9541 ft | 332 kts | 40° |
| 2026-05-05 04:04 | 41.84841 | -88.03662 | 9393 ft | 318 kts | 40° |
| 2026-05-05 04:05 | 41.86354 | -88.01579 | 9172 ft | 309 kts | 44° |
| 2026-05-05 04:05 | 41.87607 | -87.99282 | 8775 ft | 310 kts | 58° |
| 2026-05-05 04:05 | 41.88371 | -87.96596 | 8427 ft | 309 kts | 77° |
| 2026-05-05 04:05 | 41.88593 | -87.93734 | 8018 ft | 308 kts | 88° |
| 2026-05-05 04:06 | 41.88598 | -87.90875 | 7630 ft | 305 kts | 90° |
| 2026-05-05 04:06 | 41.88561 | -87.88044 | 7271 ft | 302 kts | 90° |
| 2026-05-05 04:06 | 41.88524 | -87.85245 | 6935 ft | 298 kts | 90° |
| 2026-05-05 04:06 | 41.88498 | -87.82478 | 6563 ft | 296 kts | 90° |
| 2026-05-05 04:07 | 41.88478 | -87.79726 | 6217 ft | 293 kts | 90° |
| 2026-05-05 04:07 | 41.88465 | -87.77039 | 5870 ft | 290 kts | 90° |
| 2026-05-05 04:07 | 41.88455 | -87.74335 | 5453 ft | 290 kts | 90° |
| 2026-05-05 04:07 | 41.88448 | -87.71647 | 5075 ft | 289 kts | 89° |
| 2026-05-05 04:08 | 41.88442 | -87.68945 | 4698 ft | 289 kts | 90° |
| 2026-05-05 04:08 | 41.88437 | -87.66245 | 4327 ft | 289 kts | 90° |
| 2026-05-05 04:08 | 41.88662 | -87.63596 | 4063 ft | 281 kts | 68° |
| 2026-05-05 04:08 | 41.89618 | -87.61519 | 4029 ft | 249 kts | 39° |
| 2026-05-05 04:09 | 41.91051 | -87.60445 | 4025 ft | 230 kts | 7° |
| 2026-05-05 04:09 | 41.92081 | -87.60189 | 4056 ft | 227 kts | 1° |
| 2026-05-05 04:09 | 41.93645 | -87.59925 | 4044 ft | 227 kts | 0° |
| 2026-05-05 04:09 | 41.95675 | -87.60065 | 4010 ft | 212 kts | 330° |
| 2026-05-05 04:10 | 41.96462 | -87.60788 | 4019 ft | 205 kts | 308° |
| 2026-05-05 04:10 | 41.96985 | -87.63081 | 4052 ft | 191 kts | 266° |
| 2026-05-05 04:10 | 41.96824 | -87.64793 | 4028 ft | 182 kts | 264° |
| 2026-05-05 04:10 | 41.96731 | -87.65942 | 3959 ft | 183 kts | 266° |
| 2026-05-05 04:11 | 41.96619 | -87.68086 | 3647 ft | 165 kts | 269° |
| 2026-05-05 04:11 | 41.96602 | -87.69591 | 3433 ft | 158 kts | 270° |
| 2026-05-05 04:11 | 41.96600 | -87.70587 | 3300 ft | 158 kts | 270° |
| 2026-05-05 04:11 | 41.96597 | -87.72042 | 3098 ft | 157 kts | 270° |
| 2026-05-05 04:12 | 41.96594 | -87.73519 | 2897 ft | 155 kts | 270° |
| 2026-05-05 04:12 | 41.96592 | -87.74965 | 2734 ft | 152 kts | 270° |
| 2026-05-05 04:12 | 41.96590 | -87.76297 | 2476 ft | 138 kts | 269° |
| 2026-05-05 04:12 | 41.96589 | -87.77587 | 2329 ft | 138 kts | 268° |
| 2026-05-05 04:13 | 41.96587 | -87.78886 | 2139 ft | 136 kts | 267° |
| 2026-05-05 04:13 | 41.96585 | -87.80148 | 1969 ft | 134 kts | 267° |
| 2026-05-05 04:13 | 41.96583 | -87.81395 | 1785 ft | 137 kts | 267° |
| 2026-05-05 04:13 | 41.96582 | -87.82695 | 1632 ft | 141 kts | 267° |
| 2026-05-05 04:14 | 41.96580 | -87.84012 | 1420 ft | 142 kts | 267° |
| 2026-05-05 04:14 | 41.96578 | -87.85360 | 1246 ft | 144 kts | 268° |
| 2026-05-05 04:14 | 41.96582 | -87.86701 | 1091 ft | 145 kts | 266° |
| 2026-05-05 04:14 | 41.96582 | -87.88077 | 873 ft | 149 kts | 265° |
| 2026-05-05 04:15 | 41.96579 | -87.89466 | 679 ft | 145 kts | 266° |
| 2026-05-05 04:15 | 41.96578 | -87.90643 | 677 ft | 108 kts | 269° |
| 2026-05-05 04:15 | 41.96575 | -87.91496 | 677 ft | 73 kts | 270° |
| 2026-05-05 04:15 | 41.96572 | -87.92022 | 680 ft | 44 kts | 270° |
| 2026-05-05 04:16 | 41.96573 | -87.92372 | 680 ft | 26 kts | 271° |
| 2026-05-05 04:16 | 41.96570 | -87.92544 | 679 ft | 13 kts | 269° |
| 2026-05-05 04:16 | 41.96554 | -87.92638 | 679 ft | 9 kts | 231° |
| 2026-05-05 04:16 | 41.96507 | -87.92660 | 681 ft | 7 kts | 181° |
| 2026-05-05 04:17 | 41.96441 | -87.92672 | 679 ft | 10 kts | 209° |
| 2026-05-05 04:17 | 41.96390 | -87.92727 | 679 ft | 7 kts | 213° |
| 2026-05-05 04:17 | 41.96378 | -87.92727 | 678 ft | 2 kts | 175° |
| 2026-05-05 04:17 | 41.96349 | -87.92708 | 678 ft | 7 kts | 143° |
| 2026-05-05 04:18 | 41.96295 | -87.92666 | 678 ft | 9 kts | 163° |
| 2026-05-05 04:18 | 41.96236 | -87.92665 | 678 ft | 7 kts | 181° |
| 2026-05-05 04:18 | 41.96189 | -87.92665 | 678 ft | 6 kts | 179° |
| 2026-05-05 04:18 | 41.96150 | -87.92664 | 678 ft | 5 kts | 179° |
| 2026-05-05 04:19 | 41.96126 | -87.92659 | 678 ft | 0 kts | 165° |
| 2026-05-05 04:19 | 41.96125 | -87.92659 | 678 ft | 0 kts | 163° |
| 2026-05-05 04:19 | 41.96125 | -87.92658 | 678 ft | 0 kts | 156° |
| 2026-05-05 04:19 | 41.96121 | -87.92649 | 678 ft | 1 kts | 127° |
| 2026-05-05 04:20 | 41.96118 | -87.92625 | 678 ft | 3 kts | 98° |
| 2026-05-05 04:20 | 41.96117 | -87.92608 | 678 ft | 2 kts | 92° |
| 2026-05-05 04:20 | 41.96117 | -87.92587 | 678 ft | 0 kts | 91° |
| 2026-05-05 04:20 | 41.96117 | -87.92580 | 678 ft | 0 kts | 91° |
| 2026-05-05 04:21 | 41.96117 | -87.92574 | 678 ft | 1 kts | 90° |
| 2026-05-05 04:21 | 41.96117 | -87.92567 | 678 ft | 1 kts | 91° |
| 2026-05-05 04:21 | 41.96117 | -87.92565 | 678 ft | 0 kts | 91° |